Rawalpindi Weather



Rawalpindi's Current Weather

Temprature 6.11o clear sky

clear sky

Rain: 0 %

Min Temprature6.11o
Max Temprature6.11o
Humidity88
Wind Speed0.97 m/h
Sun Rise07:11:11
Sun Set17:24:38
Current Time: 18-Jan-2021 06:44:28
Lat/Lon: 33.6007, 73.0679




Rawalpindi's Geo Location



Rawalpindi's Weather Forecast

Time Overall Temp Min Temp Max Temp Humidity Wind Speed Rain
18-Jan-2021 (Mon)
08:00:00 clear sky 7.810 7.810 9.590 70 1.13 m/h 0 %
11:00:00 clear sky 14.270 14.270 16.520 45 0.36 m/h 0 %
14:00:00 clear sky 17.880 17.880 18.680 31 1.59 m/h 0 %
17:00:00 clear sky 15.200 15.200 15.270 38 1.17 m/h 0 %
20:00:00 clear sky 12.270 12.270 12.270 42 1.87 m/h 0 %
23:00:00 clear sky 10.960 10.960 10.960 45 1.6 m/h 0 %
19-Jan-2021 (Tue)
02:00:00 clear sky 9.840 9.840 9.840 48 1.57 m/h 0 %
05:00:00 clear sky 8.870 8.870 8.870 50 1.01 m/h 0 %
08:00:00 clear sky 9.790 9.790 9.790 47 1.6 m/h 0 %
11:00:00 clear sky 17.180 17.180 17.180 29 1.87 m/h 0 %
14:00:00 clear sky 20.100 20.100 20.100 24 2.49 m/h 0 %
17:00:00 clear sky 16.180 16.180 16.180 31 2.58 m/h 0 %
20:00:00 clear sky 12.710 12.710 12.710 38 2.02 m/h 0 %
23:00:00 clear sky 11.350 11.350 11.350 41 1.68 m/h 0 %
20-Jan-2021 (Wed)
02:00:00 clear sky 10.140 10.140 10.140 44 1.64 m/h 0 %
05:00:00 clear sky 9.370 9.370 9.370 45 1.78 m/h 0 %
08:00:00 clear sky 9.880 9.880 9.880 44 1.92 m/h 0 %
11:00:00 clear sky 17.750 17.750 17.750 27 2.88 m/h 0 %
14:00:00 clear sky 20.630 20.630 20.630 23 4.4 m/h 0 %
17:00:00 scattered clouds 16.510 16.510 16.510 30 3.8 m/h 0 %
20:00:00 broken clouds 13.620 13.620 13.620 34 3.02 m/h 0 %
23:00:00 scattered clouds 11.660 11.660 11.660 39 2.04 m/h 0 %
21-Jan-2021 (Thu)
02:00:00 scattered clouds 10.310 10.310 10.310 42 2.03 m/h 0 %
05:00:00 broken clouds 9.430 9.430 9.430 44 1.76 m/h 0 %
08:00:00 broken clouds 9.790 9.790 9.790 43 1.62 m/h 0 %
11:00:00 broken clouds 17.010 17.010 17.010 26 1.71 m/h 0 %
14:00:00 overcast clouds 19.620 19.620 19.620 23 2.67 m/h 0 %
17:00:00 overcast clouds 15.780 15.780 15.780 30 1.65 m/h 0 %
20:00:00 overcast clouds 12.130 12.130 12.130 37 1.15 m/h 0 %
23:00:00 broken clouds 11.350 11.350 11.350 39 2.29 m/h 0 %
22-Jan-2021 (Fri)
02:00:00 clear sky 11.170 11.170 11.170 39 2.68 m/h 0 %
05:00:00 broken clouds 10.390 10.390 10.390 40 1.84 m/h 0 %
08:00:00 broken clouds 11.130 11.130 11.130 40 1.64 m/h 0 %
11:00:00 broken clouds 18.440 18.440 18.440 26 2.32 m/h 0 %
14:00:00 few clouds 20.570 20.570 20.570 24 4.5 m/h 0 %
17:00:00 few clouds 16.610 16.610 16.610 32 3.38 m/h 0 %
20:00:00 clear sky 12.510 12.510 12.510 42 2.45 m/h 0 %
23:00:00 clear sky 11.460 11.460 11.460 44 2.04 m/h 0 %
23-Jan-2021 (Sat)
02:00:00 scattered clouds 11.150 11.150 11.150 44 1.65 m/h 0 %
05:00:00 scattered clouds 10.420 10.420 10.420 46 2.56 m/h 0 %


Rawalpindi's Tourist Spots

Parks and Zoos in Rawalpindi

Famous Cities (60)